Time;durP1;ratioP1;P1;durP2;ratioP2;P2;SDS_P1;SDS_P2;PMS_P1;PMS_P2;Temp;Humidity;BMP_temperature;BMP_pressure;BME280_temperature;BME280_humidity;BME280_pressure;Samples;Min_cycle;Max_cycle;Signal;HPM_P1;HPM_P2
2023/07/19 00:01:48;;;;;;;0.30;0.30;;;27.60;54.70;;;;;;5089045;28;20190;-86
2023/07/19 00:04:16;;;;;;;0.20;0.20;;;27.50;55.20;;;;;;5084269;28;20194;-86
2023/07/19 00:06:45;;;;;;;0.57;0.43;;;27.50;56.00;;;;;;5084143;28;20218;-87
2023/07/19 00:09:13;;;;;;;0.55;0.55;;;27.40;56.50;;;;;;5089081;28;20641;-87
2023/07/19 00:11:43;;;;;;;0.20;0.20;;;27.30;56.40;;;;;;5088869;28;20200;-86
2023/07/19 00:14:12;;;;;;;0.40;0.30;;;27.30;56.50;;;;;;5089113;28;20352;-87
2023/07/19 00:16:40;;;;;;;1.33;0.82;;;27.30;56.60;;;;;;5084916;28;20200;-86
2023/07/19 00:19:09;;;;;;;0.43;0.32;;;27.20;56.60;;;;;;5084061;28;20591;-85
2023/07/19 00:21:48;;;;;;;0.35;0.35;;;27.20;56.50;;;;;;5082193;28;20274;-86
2023/07/19 00:24:16;;;;;;;0.50;0.50;;;27.10;56.40;;;;;;5083211;28;20705;-86
2023/07/19 00:26:47;;;;;;;1.42;0.40;;;27.10;56.40;;;;;;5097236;28;20185;-86
2023/07/19 00:29:15;;;;;;;0.43;0.43;;;27.10;56.40;;;;;;5083373;28;20235;-86
2023/07/19 00:31:44;;;;;;;0.28;0.28;;;27.00;56.30;;;;;;5089098;28;20396;-87
2023/07/19 00:34:13;;;;;;;0.30;0.30;;;27.00;56.30;;;;;;5091531;28;20221;-86
2023/07/19 00:36:41;;;;;;;0.20;0.20;;;27.00;56.30;;;;;;5080738;28;20272;-85
2023/07/19 00:39:10;;;;;;;0.20;0.20;;;27.00;56.30;;;;;;5092121;28;20197;-86
2023/07/19 00:41:39;;;;;;;1.27;0.57;;;26.90;56.40;;;;;;5087496;28;20197;-87
2023/07/19 00:44:09;;;;;;;1.10;0.50;;;26.90;56.40;;;;;;5090594;28;20595;-88
2023/07/19 00:46:38;;;;;;;0.20;0.20;;;26.90;56.40;;;;;;5077495;28;20202;-86
2023/07/19 00:49:07;;;;;;;0.90;0.82;;;26.90;56.70;;;;;;5093330;28;20615;-87
2023/07/19 00:51:36;;;;;;;0.77;0.77;;;26.80;56.60;;;;;;5087927;28;20190;-85
2023/07/19 00:54:06;;;;;;;0.70;0.70;;;26.80;56.60;;;;;;5099100;28;20219;-86
2023/07/19 00:56:36;;;;;;;0.20;0.20;;;26.70;56.60;;;;;;5098470;28;20196;-86
2023/07/19 00:59:05;;;;;;;0.30;0.30;;;26.70;56.60;;;;;;5091265;28;20284;-86
2023/07/19 01:01:36;;;;;;;1.23;0.63;;;26.70;56.80;;;;;;5087301;28;20321;-86
2023/07/19 01:04:05;;;;;;;1.00;0.60;;;26.70;57.80;;;;;;5082804;28;20193;-86
2023/07/19 01:06:33;;;;;;;0.25;0.25;;;26.60;57.20;;;;;;5085235;28;20229;-85
2023/07/19 01:09:02;;;;;;;0.40;0.40;;;26.50;57.30;;;;;;5092867;28;20199;-86
2023/07/19 01:11:30;;;;;;;0.40;0.40;;;26.50;57.40;;;;;;5092073;28;20565;-86
2023/07/19 01:14:02;;;;;;;0.68;0.40;;;26.50;57.60;;;;;;5089359;28;20201;-85
2023/07/19 01:16:30;;;;;;;0.52;0.52;;;26.40;57.50;;;;;;5098309;28;20212;-85
2023/07/19 01:19:00;;;;;;;0.25;0.25;;;26.40;57.50;;;;;;5088622;28;20198;-86
2023/07/19 01:21:29;;;;;;;0.25;0.25;;;26.30;57.60;;;;;;5091458;28;20267;-86
2023/07/19 01:23:59;;;;;;;1.55;0.40;;;26.30;57.60;;;;;;5089103;28;20567;-86
2023/07/19 01:26:27;;;;;;;0.35;0.35;;;26.30;57.80;;;;;;5091179;28;20234;-85
2023/07/19 01:28:57;;;;;;;0.43;0.35;;;26.30;57.90;;;;;;5097441;28;20197;-86
2023/07/19 01:31:26;;;;;;;0.10;0.10;;;26.20;57.90;;;;;;5084649;28;20193;-85
2023/07/19 01:33:55;;;;;;;1.27;0.75;;;26.20;57.90;;;;;;5079356;28;20194;-86
2023/07/19 01:36:25;;;;;;;0.57;0.40;;;26.20;57.90;;;;;;5090025;28;20309;-86
2023/07/19 01:38:54;;;;;;;0.40;0.40;;;26.20;58.00;;;;;;5093201;28;20209;-86
2023/07/19 01:41:24;;;;;;;0.40;0.40;;;26.20;58.30;;;;;;5092970;28;20192;-85
2023/07/19 01:43:52;;;;;;;2.72;0.65;;;26.20;58.90;;;;;;5090384;28;20186;-85
2023/07/19 01:46:21;;;;;;;0.50;0.40;;;26.10;58.20;;;;;;5077153;28;20256;-87
2023/07/19 01:48:49;;;;;;;0.30;0.30;;;26.10;58.50;;;;;;5095485;28;20551;-85
2023/07/19 01:51:18;;;;;;;0.17;0.17;;;26.00;58.80;;;;;;5093117;28;20205;-86
2023/07/19 01:53:47;;;;;;;1.25;0.70;;;26.00;59.80;;;;;;5095699;28;20185;-85
2023/07/19 01:56:15;;;;;;;0.40;0.40;;;26.00;59.70;;;;;;5088656;28;20234;-85
2023/07/19 01:58:45;;;;;;;0.65;0.65;;;25.90;59.40;;;;;;5087758;28;20508;-87
2023/07/19 02:01:13;;;;;;;0.60;0.60;;;25.90;59.60;;;;;;5091142;28;20680;-87
2023/07/19 02:03:42;;;;;;;0.20;0.20;;;25.90;59.80;;;;;;5095158;28;20190;-86
2023/07/19 02:06:11;;;;;;;0.20;0.20;;;25.90;59.80;;;;;;5087395;28;20226;-86
2023/07/19 02:08:39;;;;;;;0.95;0.63;;;25.80;60.00;;;;;;5097445;28;20193;-86
2023/07/19 02:11:08;;;;;;;0.32;0.32;;;25.80;59.90;;;;;;5096174;28;20645;-87
2023/07/19 02:13:36;;;;;;;0.30;0.30;;;25.80;60.90;;;;;;5095385;28;20267;-86
2023/07/19 02:16:06;;;;;;;0.22;0.22;;;25.70;60.60;;;;;;5083926;28;20215;-85
2023/07/19 02:18:35;;;;;;;0.20;0.20;;;25.70;60.50;;;;;;5092155;28;20252;-86
2023/07/19 02:21:03;;;;;;;0.43;0.40;;;25.70;60.40;;;;;;5087430;28;20195;-87
2023/07/19 02:23:34;;;;;;;0.40;0.38;;;25.70;60.30;;;;;;5091321;28;20191;-87
2023/07/19 02:26:02;;;;;;;0.85;0.52;;;25.70;60.30;;;;;;5086530;28;20217;-87
2023/07/19 02:28:31;;;;;;;0.60;0.60;;;25.60;60.10;;;;;;5088047;28;20476;-87
2023/07/19 02:30:59;;;;;;;3.40;1.10;;;25.70;60.30;;;;;;5092499;28;20260;-86
2023/07/19 02:33:30;;;;;;;0.30;0.30;;;25.60;60.40;;;;;;5083854;28;20603;-86
2023/07/19 02:35:58;;;;;;;0.30;0.30;;;25.60;60.70;;;;;;5082384;28;20221;-84
2023/07/19 02:38:26;;;;;;;0.40;0.40;;;25.60;60.70;;;;;;5087213;28;20205;-85
2023/07/19 02:40:59;;;;;;;0.30;0.30;;;25.60;60.70;;;;;;5092278;28;20221;-85
2023/07/19 02:43:27;;;;;;;1.10;0.55;;;25.60;60.60;;;;;;5092455;28;20190;-86
2023/07/19 02:45:56;;;;;;;0.40;0.30;;;25.60;60.50;;;;;;5088230;28;20209;-86
2023/07/19 02:48:25;;;;;;;0.45;0.45;;;25.60;60.50;;;;;;5090069;28;20202;-85
2023/07/19 02:50:55;;;;;;;0.20;0.20;;;25.60;60.50;;;;;;5085813;28;20206;-85
2023/07/19 02:53:23;;;;;;;0.90;0.60;;;25.60;60.50;;;;;;5088025;28;20194;-87
2023/07/19 02:55:52;;;;;;;1.27;0.47;;;25.60;60.70;;;;;;5087732;28;20602;-86
2023/07/19 02:58:20;;;;;;;0.32;0.32;;;25.50;60.60;;;;;;5088736;28;20284;-86
2023/07/19 03:00:49;;;;;;;0.30;0.30;;;25.50;61.30;;;;;;5078929;28;20638;-84
2023/07/19 03:03:17;;;;;;;3.72;1.48;;;25.50;61.30;;;;;;5089212;28;20208;-87
2023/07/19 03:05:46;;;;;;;1.15;0.60;;;25.40;61.90;;;;;;5090141;28;20240;-85
2023/07/19 03:08:16;;;;;;;0.63;0.63;;;25.40;62.30;;;;;;5083929;28;20621;-85
2023/07/19 03:10:44;;;;;;;0.32;0.25;;;25.40;62.50;;;;;;5088211;28;20633;-85
2023/07/19 03:13:13;;;;;;;0.63;0.40;;;25.40;62.20;;;;;;5091047;28;20225;-85
2023/07/19 03:15:47;;;;;;;0.65;0.38;;;25.40;62.20;;;;;;5087254;28;20221;-86
2023/07/19 03:18:15;;;;;;;0.65;0.60;;;25.40;62.90;;;;;;5090039;28;20537;-86
2023/07/19 03:20:43;;;;;;;0.77;0.77;;;25.40;62.80;;;;;;5085344;28;20200;-83
2023/07/19 03:23:12;;;;;;;2.38;1.27;;;25.30;62.60;;;;;;5082773;28;20198;-86
2023/07/19 03:25:42;;;;;;;0.43;0.43;;;25.30;62.90;;;;;;5091839;28;20280;-86
2023/07/19 03:28:10;;;;;;;0.20;0.20;;;25.30;62.90;;;;;;5088263;28;20282;-87
2023/07/19 03:30:39;;;;;;;0.93;0.85;;;25.30;63.50;;;;;;5092972;28;20272;-88
2023/07/19 03:33:07;;;;;;;0.40;0.40;;;25.30;63.20;;;;;;5088901;28;20202;-86
2023/07/19 03:35:36;;;;;;;0.73;0.50;;;25.30;62.90;;;;;;5086930;28;20224;-86
2023/07/19 03:38:04;;;;;;;0.47;0.30;;;25.30;63.60;;;;;;5081388;28;20202;-86
2023/07/19 03:40:33;;;;;;;0.30;0.30;;;25.30;63.80;;;;;;5082641;28;20285;-85
2023/07/19 03:43:02;;;;;;;0.30;0.30;;;25.30;63.60;;;;;;5088337;28;20599;-86
2023/07/19 03:45:31;;;;;;;0.38;0.38;;;25.30;63.70;;;;;;5089375;28;20720;-87
2023/07/19 03:47:59;;;;;;;0.32;0.30;;;25.30;63.60;;;;;;5087851;28;20193;-88
2023/07/19 03:50:28;;;;;;;0.90;0.70;;;25.30;63.50;;;;;;5080837;28;20247;-86
2023/07/19 03:52:57;;;;;;;0.30;0.30;;;25.40;63.50;;;;;;5095401;28;20209;-87
2023/07/19 03:55:25;;;;;;;1.08;0.40;;;25.30;63.60;;;;;;5090193;28;20210;-87
2023/07/19 03:57:54;;;;;;;1.48;0.73;;;25.40;63.70;;;;;;5096737;28;20198;-87
2023/07/19 04:00:24;;;;;;;0.50;0.47;;;25.40;64.80;;;;;;5088447;28;20196;-87
2023/07/19 04:02:52;;;;;;;0.40;0.40;;;25.40;63.80;;;;;;5086722;28;20186;-87
2023/07/19 04:05:21;;;;;;;0.55;0.40;;;25.50;64.30;;;;;;5079085;28;20283;-88
2023/07/19 04:07:49;;;;;;;0.40;0.40;;;25.50;64.00;;;;;;5097993;28;20200;-85
2023/07/19 04:10:18;;;;;;;0.77;0.40;;;25.50;64.20;;;;;;5086309;28;20205;-87
2023/07/19 04:12:46;;;;;;;1.10;0.75;;;25.50;64.30;;;;;;5092140;28;20198;-86
2023/07/19 04:15:14;;;;;;;0.65;0.35;;;25.50;64.70;;;;;;5084492;28;20190;-86
2023/07/19 04:17:44;;;;;;;3.75;1.48;;;25.50;65.50;;;;;;5089571;28;20223;-85
2023/07/19 04:20:13;;;;;;;0.50;0.50;;;25.60;65.10;;;;;;5087481;28;20562;-86
2023/07/19 04:22:41;;;;;;;0.60;0.60;;;25.60;65.40;;;;;;5089832;28;20186;-86
2023/07/19 04:25:11;;;;;;;0.73;0.73;;;25.60;65.10;;;;;;5087132;28;20190;-86
2023/07/19 04:27:39;;;;;;;0.40;0.40;;;25.60;65.00;;;;;;5094215;28;20645;-86
2023/07/19 04:30:11;;;;;;;0.55;0.50;;;25.60;64.90;;;;;;5081769;28;20202;-89
2023/07/19 04:32:40;;;;;;;0.65;0.52;;;25.70;65.20;;;;;;5078632;28;20190;-87
2023/07/19 04:35:11;;;;;;;3.47;2.00;;;25.70;65.00;;;;;;5083790;28;20239;-86
2023/07/19 04:37:40;;;;;;;0.75;0.65;;;25.70;65.40;;;;;;5092278;28;20219;-85
2023/07/19 04:40:09;;;;;;;0.40;0.40;;;25.80;65.30;;;;;;5091591;28;20229;-87
2023/07/19 04:42:38;;;;;;;0.20;0.20;;;25.80;65.10;;;;;;5096368;28;20660;-87
2023/07/19 04:45:07;;;;;;;1.98;1.23;;;25.90;64.90;;;;;;5094440;28;20186;-87
2023/07/19 04:47:36;;;;;;;0.50;0.50;;;25.90;64.80;;;;;;5093001;28;20669;-89
2023/07/19 04:50:07;;;;;;;0.93;0.57;;;26.00;64.60;;;;;;5085323;28;20535;-88
2023/07/19 04:52:38;;;;;;;0.60;0.50;;;26.10;64.50;;;;;;5098920;28;20890;-87
2023/07/19 04:55:08;;;;;;;1.05;0.55;;;26.10;64.70;;;;;;5088348;28;20266;-88
2023/07/19 04:57:37;;;;;;;0.30;0.30;;;26.20;64.50;;;;;;5088395;28;20209;-85
2023/07/19 05:00:11;;;;;;;0.30;0.30;;;26.20;64.40;;;;;;5086374;28;20209;-85
2023/07/19 05:02:40;;;;;;;0.25;0.25;;;26.30;64.40;;;;;;5090652;28;20224;-87
2023/07/19 05:05:14;;;;;;;0.30;0.30;;;26.40;64.30;;;;;;5084878;28;20282;-87
2023/07/19 05:07:44;;;;;;;0.68;0.50;;;26.40;64.20;;;;;;5095735;28;20193;-86
2023/07/19 05:10:14;;;;;;;0.57;0.57;;;26.50;64.30;;;;;;5087159;28;20190;-86
2023/07/19 05:12:42;;;;;;;0.40;0.40;;;26.50;64.20;;;;;;5090380;28;20581;-87
2023/07/19 05:15:11;;;;;;;4.28;0.50;;;26.60;64.20;;;;;;5097791;28;20200;-87
2023/07/19 05:17:40;;;;;;;0.47;0.40;;;26.60;64.00;;;;;;5092683;28;20304;-88
2023/07/19 05:20:10;;;;;;;0.40;0.30;;;26.70;64.20;;;;;;5087803;28;20221;-85
2023/07/19 05:22:39;;;;;;;0.25;0.25;;;26.80;64.30;;;;;;5088592;28;20260;-83
2023/07/19 05:25:10;;;;;;;1.27;0.63;;;26.80;64.20;;;;;;5095548;28;20196;-84
2023/07/19 05:27:39;;;;;;;0.43;0.25;;;26.80;64.00;;;;;;5099202;28;20203;-85
2023/07/19 05:30:08;;;;;;;1.15;0.88;;;26.90;64.10;;;;;;5085150;28;20200;-84
2023/07/19 05:32:37;;;;;;;0.30;0.20;;;27.00;64.10;;;;;;5081816;28;20194;-84
2023/07/19 05:35:07;;;;;;;1.38;1.27;;;27.00;64.00;;;;;;5087094;28;20329;-84
2023/07/19 05:37:36;;;;;;;0.55;0.55;;;27.10;64.20;;;;;;5088471;28;20214;-84
2023/07/19 05:40:05;;;;;;;0.75;0.75;;;27.10;64.10;;;;;;5080963;28;20550;-84
2023/07/19 05:42:35;;;;;;;0.77;0.60;;;27.20;65.00;;;;;;5085603;28;20186;-86
2023/07/19 05:45:06;;;;;;;0.47;0.43;;;27.30;64.50;;;;;;5086074;28;20205;-86
2023/07/19 05:47:35;;;;;;;0.45;0.32;;;27.30;64.20;;;;;;5091347;28;20191;-84
2023/07/19 05:50:03;;;;;;;3.03;1.27;;;27.40;64.20;;;;;;5086722;28;20653;-84
2023/07/19 05:52:32;;;;;;;0.52;0.40;;;27.40;64.10;;;;;;5089628;28;20185;-85
2023/07/19 05:55:00;;;;;;;0.63;0.60;;;27.50;63.90;;;;;;5083285;28;20190;-83
2023/07/19 05:57:35;;;;;;;0.70;0.68;;;27.60;64.00;;;;;;5084836;28;20209;-85
2023/07/19 06:00:14;;;;;;;1.55;0.60;;;27.60;63.80;;;;;;5085806;28;20246;-84
2023/07/19 06:02:45;;;;;;;0.60;0.60;;;27.70;63.60;;;;;;5083042;28;20186;-85
2023/07/19 06:05:23;;;;;;;0.85;0.85;;;27.80;63.60;;;;;;5088667;28;20239;-85
2023/07/19 06:07:52;;;;;;;1.00;0.40;;;27.80;63.30;;;;;;5086622;28;20216;-85
2023/07/19 06:10:21;;;;;;;0.38;0.38;;;27.90;63.30;;;;;;5085263;28;20197;-83
2023/07/19 06:12:51;;;;;;;0.88;0.70;;;28.00;63.20;;;;;;5079866;28;20196;-84
2023/07/19 06:15:20;;;;;;;0.40;0.40;;;28.00;63.00;;;;;;5077152;28;20198;-84
2023/07/19 06:17:48;;;;;;;4.75;0.40;;;28.10;63.00;;;;;;5086798;28;20586;-84
2023/07/19 06:20:17;;;;;;;0.85;0.63;;;28.20;62.90;;;;;;5087365;28;20193;-85
2023/07/19 06:22:48;;;;;;;0.55;0.55;;;28.20;62.80;;;;;;5092793;28;20197;-84
2023/07/19 06:25:16;;;;;;;0.20;0.20;;;28.30;63.10;;;;;;5092264;28;20182;-86
2023/07/19 06:27:45;;;;;;;0.57;0.50;;;28.40;62.90;;;;;;5083327;28;20199;-84
2023/07/19 06:30:15;;;;;;;0.50;0.50;;;28.50;62.90;;;;;;5088550;28;20259;-83
2023/07/19 06:32:43;;;;;;;0.50;0.50;;;28.60;62.80;;;;;;5076566;28;20195;-82
2023/07/19 06:35:12;;;;;;;3.03;0.68;;;28.60;62.60;;;;;;5093823;28;20523;-82
2023/07/19 06:37:40;;;;;;;1.00;0.70;;;28.70;62.50;;;;;;5087117;28;20263;-83
2023/07/19 06:40:10;;;;;;;2.47;0.57;;;28.80;62.40;;;;;;5080410;28;20209;-82
2023/07/19 06:42:38;;;;;;;3.05;0.68;;;28.80;62.10;;;;;;5094699;28;20197;-82
2023/07/19 06:45:07;;;;;;;1.15;0.82;;;28.90;62.30;;;;;;5088236;28;20194;-83
2023/07/19 06:47:37;;;;;;;0.80;0.52;;;28.90;62.10;;;;;;5087248;28;20213;-82
2023/07/19 06:50:07;;;;;;;1.23;0.40;;;29.00;61.90;;;;;;5087872;28;20194;-82
2023/07/19 06:52:36;;;;;;;1.55;0.73;;;29.10;61.90;;;;;;5087208;28;20197;-82
2023/07/19 06:55:06;;;;;;;0.43;0.43;;;29.10;61.90;;;;;;5091543;28;20194;-82
2023/07/19 06:57:34;;;;;;;0.75;0.57;;;29.20;61.80;;;;;;5085982;28;20275;-82
2023/07/19 07:00:05;;;;;;;0.73;0.50;;;29.20;61.60;;;;;;5087951;28;20194;-82
2023/07/19 07:02:33;;;;;;;0.77;0.50;;;29.30;61.60;;;;;;5090964;28;20672;-81
2023/07/19 07:05:03;;;;;;;0.30;0.30;;;29.30;61.60;;;;;;5087249;28;20225;-82
2023/07/19 07:07:32;;;;;;;0.35;0.35;;;29.40;61.40;;;;;;5088761;28;20197;-82
2023/07/19 07:10:04;;;;;;;0.57;0.40;;;29.40;61.60;;;;;;5087388;28;20206;-82
2023/07/19 07:12:33;;;;;;;0.50;0.50;;;29.50;61.80;;;;;;5089250;28;20243;-84
2023/07/19 07:15:02;;;;;;;0.60;0.52;;;29.50;61.70;;;;;;5087669;28;20197;-84
2023/07/19 07:17:30;;;;;;;2.00;1.33;;;29.60;61.70;;;;;;5086774;28;20217;-83
2023/07/19 07:19:59;;;;;;;0.60;0.60;;;29.70;61.60;;;;;;5081367;28;20194;-84
2023/07/19 07:22:29;;;;;;;0.65;0.52;;;29.70;61.60;;;;;;5087505;28;20189;-85
2023/07/19 07:24:57;;;;;;;0.45;0.45;;;29.80;61.60;;;;;;5076736;28;20266;-84
2023/07/19 07:27:27;;;;;;;0.50;0.50;;;29.80;61.30;;;;;;5087469;28;20537;-85
2023/07/19 07:29:56;;;;;;;1.67;1.27;;;29.80;61.10;;;;;;5089042;28;20642;-85
2023/07/19 07:32:25;;;;;;;1.48;0.75;;;29.90;61.10;;;;;;5088720;28;20234;-87
2023/07/19 07:34:53;;;;;;;0.75;0.52;;;30.00;61.10;;;;;;5086510;28;20337;-85
2023/07/19 07:37:22;;;;;;;0.70;0.70;;;30.00;60.80;;;;;;5096814;28;20686;-82
2023/07/19 07:39:52;;;;;;;0.63;0.63;;;30.10;60.60;;;;;;5087122;28;20201;-85
2023/07/19 07:42:21;;;;;;;0.50;0.50;;;30.10;60.30;;;;;;5091580;28;20228;-86
2023/07/19 07:44:49;;;;;;;0.10;0.10;;;30.10;60.20;;;;;;5088178;28;20279;-85
2023/07/19 07:47:18;;;;;;;6.88;0.88;;;30.20;60.10;;;;;;5099853;28;20193;-87
2023/07/19 07:49:47;;;;;;;0.65;0.52;;;30.30;60.00;;;;;;5081038;28;20272;-85
2023/07/19 07:52:16;;;;;;;0.40;0.40;;;30.30;59.70;;;;;;5092106;28;20193;-86
2023/07/19 07:54:45;;;;;;;0.88;0.60;;;30.30;59.60;;;;;;5086515;28;20194;-86
2023/07/19 07:57:15;;;;;;;1.60;1.02;;;30.40;59.70;;;;;;5084153;28;20201;-87
2023/07/19 07:59:43;;;;;;;1.05;0.70;;;30.40;59.40;;;;;;5081677;28;20221;-85
2023/07/19 08:02:12;;;;;;;0.45;0.45;;;30.50;59.40;;;;;;5081488;28;20247;-86
2023/07/19 08:04:40;;;;;;;0.30;0.30;;;30.50;59.00;;;;;;5075257;28;20198;-84
2023/07/19 08:07:09;;;;;;;0.50;0.50;;;30.60;58.70;;;;;;5077728;28;20212;-85
2023/07/19 08:09:39;;;;;;;0.38;0.38;;;30.70;58.70;;;;;;5085176;28;20194;-86
2023/07/19 08:12:08;;;;;;;0.50;0.50;;;30.70;58.70;;;;;;5089782;28;20219;-86
2023/07/19 08:14:40;;;;;;;0.40;0.40;;;30.80;58.70;;;;;;5088374;28;20468;-86
2023/07/19 08:17:09;;;;;;;0.63;0.50;;;30.80;58.50;;;;;;5081322;28;20303;-86
2023/07/19 08:19:38;;;;;;;0.50;0.50;;;30.80;58.70;;;;;;5089910;28;20253;-86
2023/07/19 08:22:07;;;;;;;0.70;0.57;;;30.80;58.20;;;;;;5090562;28;20205;-84
2023/07/19 08:24:36;;;;;;;0.68;0.68;;;30.90;58.40;;;;;;5088565;28;20197;-86
2023/07/19 08:27:05;;;;;;;0.68;0.55;;;30.90;58.40;;;;;;5082696;28;20666;-85
2023/07/19 08:29:33;;;;;;;0.75;0.75;;;30.90;58.10;;;;;;5082268;28;20656;-85
2023/07/19 08:32:04;;;;;;;2.28;1.02;;;31.00;58.10;;;;;;5092063;28;20197;-85
2023/07/19 08:34:32;;;;;;;0.45;0.38;;;31.00;57.50;;;;;;5081452;28;20295;-86
2023/07/19 08:37:03;;;;;;;0.32;0.32;;;31.10;57.20;;;;;;5076504;28;20198;-83
2023/07/19 08:39:31;;;;;;;1.25;0.68;;;31.10;57.20;;;;;;5081104;28;20217;-86
2023/07/19 08:42:02;;;;;;;0.73;0.73;;;31.10;57.60;;;;;;5090756;28;20194;-86
2023/07/19 08:44:32;;;;;;;0.77;0.77;;;31.20;57.60;;;;;;5076744;28;20556;-86
2023/07/19 08:47:01;;;;;;;0.95;0.82;;;31.20;57.70;;;;;;5091411;28;20198;-86
2023/07/19 08:49:34;;;;;;;1.48;0.75;;;31.20;57.60;;;;;;5079299;28;20225;-85
2023/07/19 08:52:03;;;;;;;0.60;0.60;;;31.30;57.40;;;;;;5086729;28;20198;-84
2023/07/19 08:54:32;;;;;;;1.20;0.75;;;31.30;57.30;;;;;;5083994;28;20192;-85
2023/07/19 08:57:01;;;;;;;1.15;1.02;;;31.40;57.10;;;;;;5083567;28;20194;-85
2023/07/19 08:59:29;;;;;;;0.73;0.52;;;31.40;57.20;;;;;;5079763;28;20245;-85
2023/07/19 09:01:57;;;;;;;1.42;1.05;;;31.50;57.20;;;;;;5076724;28;20228;-86
2023/07/19 09:04:27;;;;;;;1.00;0.68;;;31.50;57.10;;;;;;5097535;28;20193;-84
2023/07/19 09:06:58;;;;;;;0.40;0.30;;;31.50;55.90;;;;;;5080203;28;20252;-85
2023/07/19 09:09:27;;;;;;;0.57;0.38;;;31.50;56.00;;;;;;5079399;28;20272;-84
2023/07/19 09:11:55;;;;;;;0.50;0.50;;;31.60;56.30;;;;;;5087659;28;22299;-85
2023/07/19 09:14:35;;;;;;;1.65;1.00;;;31.70;56.50;;;;;;5086606;28;20687;-84
2023/07/19 09:17:04;;;;;;;2.30;1.17;;;31.70;56.50;;;;;;5080997;28;20202;-85
2023/07/19 09:19:37;;;;;;;0.52;0.52;;;31.70;55.70;;;;;;5088312;28;20316;-86
2023/07/19 09:22:08;;;;;;;1.75;0.43;;;31.70;55.20;;;;;;5097821;28;20197;-83
2023/07/19 09:24:40;;;;;;;0.93;0.90;;;31.80;55.20;;;;;;5084406;28;20824;-83
2023/07/19 09:27:11;;;;;;;0.40;0.40;;;31.80;55.10;;;;;;5098845;28;20197;-84
2023/07/19 09:29:43;;;;;;;0.90;0.85;;;31.80;53.80;;;;;;5091461;28;20269;-82
2023/07/19 09:32:16;;;;;;;1.65;0.77;;;31.80;53.40;;;;;;5084669;28;20771;-83
2023/07/19 09:34:46;;;;;;;0.50;0.50;;;31.90;53.10;;;;;;5082362;28;20551;-83
2023/07/19 09:37:19;;;;;;;0.55;0.55;;;32.00;53.40;;;;;;5093883;28;20223;-83
2023/07/19 09:39:48;;;;;;;1.08;0.98;;;32.10;53.70;;;;;;5089959;28;20214;-81
2023/07/19 09:42:17;;;;;;;0.80;0.40;;;32.10;53.30;;;;;;5095850;28;20195;-82
2023/07/19 09:44:49;;;;;;;1.02;0.80;;;32.20;53.50;;;;;;5095346;28;20243;-83
2023/07/19 09:47:19;;;;;;;1.13;0.73;;;32.20;53.80;;;;;;5089040;28;20185;-82
2023/07/19 09:49:57;;;;;;;0.77;0.65;;;32.30;53.70;;;;;;5081543;28;20213;-83
2023/07/19 09:52:30;;;;;;;1.85;0.93;;;32.30;53.80;;;;;;5085285;28;20198;-83
2023/07/19 09:54:58;;;;;;;2.67;1.27;;;32.30;52.80;;;;;;5082980;28;20650;-83
2023/07/19 09:57:29;;;;;;;1.33;0.60;;;32.40;51.00;;;;;;5094313;28;20195;-83
2023/07/19 09:59:58;;;;;;;15.38;3.13;;;32.50;51.70;;;;;;5080477;28;20214;-82
2023/07/19 10:02:27;;;;;;;2.55;0.80;;;32.50;51.50;;;;;;5083085;28;20272;-83
2023/07/19 10:04:56;;;;;;;1.48;1.38;;;32.60;51.40;;;;;;5083071;28;20193;-83
2023/07/19 10:07:28;;;;;;;0.77;0.70;;;32.60;51.30;;;;;;5093208;28;20182;-84
2023/07/19 10:10:15;;;;;;;0.90;0.73;;;32.60;51.10;;;;;;5082479;28;20197;-82
2023/07/19 10:12:47;;;;;;;2.20;1.42;;;32.70;51.60;;;;;;5089656;28;20642;-82
2023/07/19 10:15:18;;;;;;;1.67;0.90;;;32.70;52.00;;;;;;5082538;28;20190;-82
2023/07/19 10:17:55;;;;;;;1.35;0.88;;;32.80;52.20;;;;;;5087256;27;20222;-82
2023/07/19 10:20:27;;;;;;;0.93;0.80;;;32.90;51.50;;;;;;5078872;28;20312;-83
2023/07/19 10:22:59;;;;;;;0.98;0.95;;;32.90;51.80;;;;;;5079979;28;20189;-82
2023/07/19 10:25:29;;;;;;;1.60;1.38;;;33.00;51.90;;;;;;5074406;28;20195;-87
2023/07/19 10:27:59;;;;;;;0.50;0.50;;;33.10;52.10;;;;;;5085886;28;20308;-83
2023/07/19 10:30:50;;;;;;;0.73;0.70;;;33.10;52.10;;;;;;5083080;28;20200;-84
2023/07/19 10:33:20;;;;;;;1.45;0.90;;;33.20;51.50;;;;;;5081591;28;20193;-83
2023/07/19 10:35:51;;;;;;;2.28;0.77;;;33.20;51.80;;;;;;5081805;28;20601;-84
2023/07/19 10:38:23;;;;;;;1.00;0.82;;;33.20;51.60;;;;;;5076395;28;20558;-84
2023/07/19 10:40:56;;;;;;;5.60;0.55;;;33.30;51.80;;;;;;5090239;28;20205;-85
2023/07/19 10:43:26;;;;;;;0.82;0.77;;;33.40;51.90;;;;;;5084269;28;20232;-86
2023/07/19 10:46:14;;;;;;;0.95;0.63;;;33.40;51.40;;;;;;5089645;28;20238;-84
2023/07/19 10:48:42;;;;;;;1.42;0.85;;;33.50;51.30;;;;;;5098447;28;20333;-83
2023/07/19 10:51:11;;;;;;;0.50;0.50;;;33.50;50.80;;;;;;5077143;28;20247;-83
2023/07/19 10:53:46;;;;;;;0.40;0.30;;;33.60;51.30;;;;;;5082690;28;20194;-83
2023/07/19 10:56:18;;;;;;;0.57;0.57;;;33.70;51.50;;;;;;5091642;28;20766;-83
2023/07/19 10:58:48;;;;;;;0.60;0.55;;;33.70;51.50;;;;;;5074754;28;20221;-81
2023/07/19 11:01:17;;;;;;;0.95;0.82;;;33.80;51.40;;;;;;5079929;28;20229;-86
2023/07/19 11:03:47;;;;;;;0.70;0.65;;;33.80;51.10;;;;;;5086740;28;20201;-85
2023/07/19 11:06:16;;;;;;;0.63;0.63;;;33.90;50.90;;;;;;5088968;28;20424;-83
2023/07/19 11:08:46;;;;;;;0.75;0.65;;;33.90;50.90;;;;;;5088259;28;20649;-81
2023/07/19 11:11:15;;;;;;;0.75;0.75;;;34.00;50.80;;;;;;5080271;28;20212;-83
2023/07/19 11:13:46;;;;;;;2.00;0.75;;;34.00;50.80;;;;;;5089368;28;20189;-84
2023/07/19 11:16:15;;;;;;;0.57;0.47;;;34.00;50.80;;;;;;5084678;28;20316;-83
2023/07/19 11:18:43;;;;;;;0.50;0.50;;;34.10;50.50;;;;;;5086250;28;20202;-83
2023/07/19 11:21:12;;;;;;;2.70;0.85;;;34.20;50.00;;;;;;5093743;28;20245;-84
2023/07/19 11:23:44;;;;;;;1.20;0.68;;;34.20;50.10;;;;;;5087066;28;20198;-83
2023/07/19 11:26:15;;;;;;;2.83;0.50;;;34.30;50.20;;;;;;5087465;28;20217;-83
2023/07/19 11:28:49;;;;;;;0.60;0.50;;;34.30;49.90;;;;;;5086189;28;20201;-84
2023/07/19 11:31:34;;;;;;;4.95;0.80;;;34.30;50.00;;;;;;5084814;28;20193;-83
2023/07/19 11:34:06;;;;;;;0.55;0.52;;;34.40;49.70;;;;;;5082899;28;20231;-84
2023/07/19 11:36:35;;;;;;;2.17;0.80;;;34.40;49.90;;;;;;5086365;28;20238;-86
2023/07/19 11:39:04;;;;;;;0.32;0.32;;;34.50;49.90;;;;;;5085776;28;20194;-84
2023/07/19 11:41:34;;;;;;;2.15;0.60;;;34.50;49.50;;;;;;5076815;28;20222;-87
2023/07/19 11:44:03;;;;;;;0.93;0.80;;;34.50;49.40;;;;;;5088510;28;20285;-87
2023/07/19 11:46:32;;;;;;;1.00;0.75;;;34.60;49.50;;;;;;5086887;28;20696;-85
2023/07/19 11:49:01;;;;;;;0.95;0.65;;;34.60;48.60;;;;;;5079745;28;20195;-84
2023/07/19 11:51:30;;;;;;;0.50;0.50;;;34.50;48.10;;;;;;5091199;28;20242;-83
2023/07/19 11:53:59;;;;;;;0.35;0.30;;;34.60;48.10;;;;;;5087675;28;20230;-85
2023/07/19 11:56:29;;;;;;;2.28;1.25;;;34.60;47.80;;;;;;5089367;28;20667;-84
2023/07/19 11:58:59;;;;;;;2.05;0.70;;;34.60;47.50;;;;;;5078279;28;20194;-84
2023/07/19 12:01:28;;;;;;;3.15;0.65;;;34.60;47.80;;;;;;5078597;28;20218;-84
2023/07/19 12:04:01;;;;;;;0.93;0.85;;;34.60;47.50;;;;;;5080371;28;20247;-85
2023/07/19 12:06:31;;;;;;;0.88;0.40;;;34.70;47.20;;;;;;5080191;28;20269;-83
2023/07/19 12:09:00;;;;;;;0.70;0.43;;;34.80;47.80;;;;;;5085992;28;20251;-83
2023/07/19 12:11:29;;;;;;;1.30;0.75;;;34.80;47.80;;;;;;5075203;28;20559;-83
2023/07/19 12:14:01;;;;;;;0.50;0.50;;;34.90;47.50;;;;;;5079809;28;20209;-84
2023/07/19 12:16:30;;;;;;;0.82;0.82;;;34.90;47.30;;;;;;5080844;28;20195;-84
2023/07/19 12:18:58;;;;;;;0.60;0.60;;;35.00;47.10;;;;;;5077690;28;20205;-84
2023/07/19 12:21:27;;;;;;;0.70;0.60;;;35.10;47.40;;;;;;5076948;28;20218;-85
2023/07/19 12:23:56;;;;;;;1.60;0.93;;;35.10;47.10;;;;;;5086296;28;20201;-83
2023/07/19 12:26:27;;;;;;;5.60;1.77;;;35.10;46.60;;;;;;5076272;28;20186;-83
2023/07/19 12:29:00;;;;;;;0.90;0.40;;;35.10;46.00;;;;;;5083307;28;20198;-84
2023/07/19 12:31:29;;;;;;;2.22;1.23;;;35.20;46.50;;;;;;5089448;28;20183;-84
2023/07/19 12:33:58;;;;;;;1.90;1.23;;;35.30;46.90;;;;;;5072186;28;20287;-86
2023/07/19 12:36:27;;;;;;;0.38;0.38;;;35.30;45.40;;;;;;5084064;28;20676;-84
2023/07/19 12:38:56;;;;;;;0.50;0.50;;;35.30;45.10;;;;;;5079407;28;20194;-84
2023/07/19 12:41:25;;;;;;;1.15;1.05;;;35.40;45.20;;;;;;5078201;28;20216;-87
2023/07/19 12:43:54;;;;;;;0.77;0.77;;;35.40;44.80;;;;;;5077923;28;20209;-83
2023/07/19 12:46:24;;;;;;;0.35;0.35;;;35.60;44.80;;;;;;5088674;28;20559;-85
2023/07/19 12:48:53;;;;;;;0.60;0.60;;;35.70;45.00;;;;;;5079774;28;20197;-85
2023/07/19 12:51:22;;;;;;;0.55;0.55;;;35.70;44.90;;;;;;5092811;28;20193;-85
2023/07/19 12:53:51;;;;;;;1.17;0.70;;;35.70;45.00;;;;;;5087707;28;20202;-85
2023/07/19 12:56:19;;;;;;;0.93;0.77;;;35.80;45.30;;;;;;5088051;28;20204;-85
2023/07/19 12:58:49;;;;;;;0.93;0.90;;;35.80;44.30;;;;;;5082026;28;20204;-85
2023/07/19 13:01:17;;;;;;;0.30;0.30;;;35.90;44.30;;;;;;5075947;28;20222;-84